sensor_id;sensor_type;location;lat;lon;timestamp;P1;durP1;ratioP1;P2;durP2;ratioP2
76405;SDS011;65234;50.044;19.258;2022-12-16T00:00:46;37.17;;;34.07;;
76405;SDS011;65234;50.044;19.258;2022-12-16T00:03:20;37.83;;;35.47;;
76405;SDS011;65234;50.044;19.258;2022-12-16T00:05:47;32.10;;;30.37;;
76405;SDS011;65234;50.044;19.258;2022-12-16T00:08:14;35.17;;;32.57;;
76405;SDS011;65234;50.044;19.258;2022-12-16T00:10:40;38.43;;;35.80;;
76405;SDS011;65234;50.044;19.258;2022-12-16T00:13:05;35.67;;;33.37;;
76405;SDS011;65234;50.044;19.258;2022-12-16T00:15:31;31.40;;;29.50;;
76405;SDS011;65234;50.044;19.258;2022-12-16T00:17:57;32.33;;;30.73;;
76405;SDS011;65234;50.044;19.258;2022-12-16T00:20:22;38.10;;;35.43;;
76405;SDS011;65234;50.044;19.258;2022-12-16T00:22:48;38.80;;;35.53;;
76405;SDS011;65234;50.044;19.258;2022-12-16T00:25:15;41.97;;;37.97;;
76405;SDS011;65234;50.044;19.258;2022-12-16T00:27:41;39.77;;;36.70;;
76405;SDS011;65234;50.044;19.258;2022-12-16T00:30:07;34.33;;;31.53;;
76405;SDS011;65234;50.044;19.258;2022-12-16T00:32:34;35.27;;;32.73;;
76405;SDS011;65234;50.044;19.258;2022-12-16T00:34:59;40.13;;;37.07;;
76405;SDS011;65234;50.044;19.258;2022-12-16T00:37:25;40.00;;;36.77;;
76405;SDS011;65234;50.044;19.258;2022-12-16T00:39:51;36.37;;;34.20;;
76405;SDS011;65234;50.044;19.258;2022-12-16T00:42:18;36.30;;;33.80;;
76405;SDS011;65234;50.044;19.258;2022-12-16T00:44:44;35.17;;;32.03;;
76405;SDS011;65234;50.044;19.258;2022-12-16T00:47:09;33.80;;;31.87;;
76405;SDS011;65234;50.044;19.258;2022-12-16T00:49:35;37.47;;;34.77;;
76405;SDS011;65234;50.044;19.258;2022-12-16T00:52:01;41.83;;;37.93;;
76405;SDS011;65234;50.044;19.258;2022-12-16T00:54:27;33.70;;;31.87;;
76405;SDS011;65234;50.044;19.258;2022-12-16T00:56:53;38.23;;;35.13;;
76405;SDS011;65234;50.044;19.258;2022-12-16T00:59:19;33.17;;;31.43;;
76405;SDS011;65234;50.044;19.258;2022-12-16T01:01:45;33.67;;;31.40;;
76405;SDS011;65234;50.044;19.258;2022-12-16T01:04:11;33.47;;;31.80;;
76405;SDS011;65234;50.044;19.258;2022-12-16T01:06:37;34.53;;;32.63;;
76405;SDS011;65234;50.044;19.258;2022-12-16T01:09:02;37.93;;;34.73;;
76405;SDS011;65234;50.044;19.258;2022-12-16T01:11:28;31.90;;;30.20;;
76405;SDS011;65234;50.044;19.258;2022-12-16T01:13:54;35.07;;;32.80;;
76405;SDS011;65234;50.044;19.258;2022-12-16T01:16:21;36.33;;;33.90;;
76405;SDS011;65234;50.044;19.258;2022-12-16T01:18:47;33.47;;;31.77;;
76405;SDS011;65234;50.044;19.258;2022-12-16T01:21:13;32.97;;;31.17;;
76405;SDS011;65234;50.044;19.258;2022-12-16T01:23:39;33.43;;;31.53;;
76405;SDS011;65234;50.044;19.258;2022-12-16T01:26:05;33.70;;;31.73;;
76405;SDS011;65234;50.044;19.258;2022-12-16T01:28:31;36.40;;;34.03;;
76405;SDS011;65234;50.044;19.258;2022-12-16T01:30:57;39.13;;;36.03;;
76405;SDS011;65234;50.044;19.258;2022-12-16T01:33:25;42.07;;;38.93;;
76405;SDS011;65234;50.044;19.258;2022-12-16T01:35:57;40.37;;;36.27;;
76405;SDS011;65234;50.044;19.258;2022-12-16T01:38:23;38.90;;;36.37;;
76405;SDS011;65234;50.044;19.258;2022-12-16T01:40:49;32.90;;;30.90;;
76405;SDS011;65234;50.044;19.258;2022-12-16T01:43:15;31.90;;;29.80;;
76405;SDS011;65234;50.044;19.258;2022-12-16T01:45:43;32.17;;;30.33;;
76405;SDS011;65234;50.044;19.258;2022-12-16T01:48:11;37.40;;;35.30;;
76405;SDS011;65234;50.044;19.258;2022-12-16T01:50:45;35.90;;;33.00;;
76405;SDS011;65234;50.044;19.258;2022-12-16T01:53:12;34.60;;;32.33;;
76405;SDS011;65234;50.044;19.258;2022-12-16T01:55:39;28.63;;;27.33;;
76405;SDS011;65234;50.044;19.258;2022-12-16T01:58:10;31.60;;;29.77;;
76405;SDS011;65234;50.044;19.258;2022-12-16T02:00:38;36.83;;;34.07;;
76405;SDS011;65234;50.044;19.258;2022-12-16T02:03:05;39.70;;;37.00;;
76405;SDS011;65234;50.044;19.258;2022-12-16T02:05:32;39.07;;;35.53;;
76405;SDS011;65234;50.044;19.258;2022-12-16T02:08:01;35.27;;;33.27;;
76405;SDS011;65234;50.044;19.258;2022-12-16T02:10:38;32.33;;;30.03;;
76405;SDS011;65234;50.044;19.258;2022-12-16T02:13:18;37.07;;;34.77;;
76405;SDS011;65234;50.044;19.258;2022-12-16T02:15:51;35.77;;;33.30;;
76405;SDS011;65234;50.044;19.258;2022-12-16T02:18:28;40.23;;;36.63;;
76405;SDS011;65234;50.044;19.258;2022-12-16T02:21:11;39.90;;;36.80;;
76405;SDS011;65234;50.044;19.258;2022-12-16T02:27:15;34.38;;;32.33;;
76405;SDS011;65234;50.044;19.258;2022-12-16T02:30:07;33.80;;;31.70;;
76405;SDS011;65234;50.044;19.258;2022-12-16T02:32:57;33.93;;;31.50;;
76405;SDS011;65234;50.044;19.258;2022-12-16T02:35:32;33.07;;;31.23;;
76405;SDS011;65234;50.044;19.258;2022-12-16T02:38:06;36.33;;;33.83;;
76405;SDS011;65234;50.044;19.258;2022-12-16T02:40:42;34.43;;;32.13;;
76405;SDS011;65234;50.044;19.258;2022-12-16T02:45:46;32.13;;;30.23;;
76405;SDS011;65234;50.044;19.258;2022-12-16T02:48:14;37.10;;;33.57;;
76405;SDS011;65234;50.044;19.258;2022-12-16T02:50:41;31.33;;;29.53;;
76405;SDS011;65234;50.044;19.258;2022-12-16T02:53:11;32.63;;;30.63;;
76405;SDS011;65234;50.044;19.258;2022-12-16T02:55:40;31.43;;;29.73;;
76405;SDS011;65234;50.044;19.258;2022-12-16T02:58:24;35.03;;;32.77;;
76405;SDS011;65234;50.044;19.258;2022-12-16T03:00:58;35.40;;;33.40;;
76405;SDS011;65234;50.044;19.258;2022-12-16T03:03:34;37.10;;;34.60;;
76405;SDS011;65234;50.044;19.258;2022-12-16T03:06:04;36.05;;;33.38;;
76405;SDS011;65234;50.044;19.258;2022-12-16T03:08:33;37.47;;;34.60;;
76405;SDS011;65234;50.044;19.258;2022-12-16T03:11:02;34.90;;;32.90;;
76405;SDS011;65234;50.044;19.258;2022-12-16T03:13:30;33.53;;;31.07;;
76405;SDS011;65234;50.044;19.258;2022-12-16T03:16:00;35.20;;;32.60;;
76405;SDS011;65234;50.044;19.258;2022-12-16T03:18:28;32.93;;;30.23;;
76405;SDS011;65234;50.044;19.258;2022-12-16T03:20:56;33.97;;;31.83;;
76405;SDS011;65234;50.044;19.258;2022-12-16T03:23:26;39.03;;;35.73;;
76405;SDS011;65234;50.044;19.258;2022-12-16T03:25:55;37.17;;;34.03;;
76405;SDS011;65234;50.044;19.258;2022-12-16T03:28:30;32.73;;;31.00;;
76405;SDS011;65234;50.044;19.258;2022-12-16T03:31:06;33.83;;;31.63;;
76405;SDS011;65234;50.044;19.258;2022-12-16T03:33:39;33.10;;;30.97;;
76405;SDS011;65234;50.044;19.258;2022-12-16T03:36:14;34.70;;;32.50;;
76405;SDS011;65234;50.044;19.258;2022-12-16T03:38:44;33.53;;;31.83;;
76405;SDS011;65234;50.044;19.258;2022-12-16T03:41:11;34.13;;;31.90;;
76405;SDS011;65234;50.044;19.258;2022-12-16T03:43:39;36.80;;;34.47;;
76405;SDS011;65234;50.044;19.258;2022-12-16T03:46:05;32.40;;;30.07;;
76405;SDS011;65234;50.044;19.258;2022-12-16T03:48:32;31.33;;;29.43;;
76405;SDS011;65234;50.044;19.258;2022-12-16T03:50:58;36.60;;;34.27;;
76405;SDS011;65234;50.044;19.258;2022-12-16T03:53:26;31.70;;;30.10;;
76405;SDS011;65234;50.044;19.258;2022-12-16T03:55:51;34.73;;;32.20;;
76405;SDS011;65234;50.044;19.258;2022-12-16T03:58:17;34.77;;;32.83;;
76405;SDS011;65234;50.044;19.258;2022-12-16T04:00:43;38.37;;;35.37;;
76405;SDS011;65234;50.044;19.258;2022-12-16T04:03:10;39.10;;;36.40;;
76405;SDS011;65234;50.044;19.258;2022-12-16T04:05:36;36.00;;;33.90;;
76405;SDS011;65234;50.044;19.258;2022-12-16T04:08:02;34.87;;;32.20;;
76405;SDS011;65234;50.044;19.258;2022-12-16T04:10:29;36.30;;;32.97;;
76405;SDS011;65234;50.044;19.258;2022-12-16T04:12:55;33.13;;;31.03;;
76405;SDS011;65234;50.044;19.258;2022-12-16T04:15:20;36.67;;;34.33;;
76405;SDS011;65234;50.044;19.258;2022-12-16T04:17:46;37.70;;;34.77;;
76405;SDS011;65234;50.044;19.258;2022-12-16T04:20:15;34.80;;;32.87;;
76405;SDS011;65234;50.044;19.258;2022-12-16T04:22:42;34.57;;;32.60;;
76405;SDS011;65234;50.044;19.258;2022-12-16T04:25:09;36.87;;;34.63;;
76405;SDS011;65234;50.044;19.258;2022-12-16T04:27:39;38.53;;;36.20;;
76405;SDS011;65234;50.044;19.258;2022-12-16T04:30:06;39.00;;;35.43;;
76405;SDS011;65234;50.044;19.258;2022-12-16T04:32:32;37.67;;;35.37;;
76405;SDS011;65234;50.044;19.258;2022-12-16T04:34:58;37.67;;;35.10;;
76405;SDS011;65234;50.044;19.258;2022-12-16T04:37:24;39.03;;;36.40;;
76405;SDS011;65234;50.044;19.258;2022-12-16T04:39:49;35.87;;;33.23;;
76405;SDS011;65234;50.044;19.258;2022-12-16T04:42:15;40.63;;;37.40;;
76405;SDS011;65234;50.044;19.258;2022-12-16T04:44:42;36.23;;;33.93;;
76405;SDS011;65234;50.044;19.258;2022-12-16T04:47:08;36.83;;;34.30;;
76405;SDS011;65234;50.044;19.258;2022-12-16T04:49:33;39.87;;;36.07;;
76405;SDS011;65234;50.044;19.258;2022-12-16T04:51:59;35.33;;;33.17;;
76405;SDS011;65234;50.044;19.258;2022-12-16T04:54:25;37.43;;;34.80;;
76405;SDS011;65234;50.044;19.258;2022-12-16T04:56:51;36.77;;;34.53;;
76405;SDS011;65234;50.044;19.258;2022-12-16T04:59:16;33.53;;;31.57;;
76405;SDS011;65234;50.044;19.258;2022-12-16T05:01:44;37.10;;;34.67;;
76405;SDS011;65234;50.044;19.258;2022-12-16T05:04:09;34.73;;;32.73;;
76405;SDS011;65234;50.044;19.258;2022-12-16T05:06:35;35.77;;;33.47;;
76405;SDS011;65234;50.044;19.258;2022-12-16T05:09:01;32.03;;;30.27;;
76405;SDS011;65234;50.044;19.258;2022-12-16T05:11:27;36.30;;;34.03;;
76405;SDS011;65234;50.044;19.258;2022-12-16T05:13:53;36.80;;;34.70;;
76405;SDS011;65234;50.044;19.258;2022-12-16T05:16:19;34.13;;;32.03;;
76405;SDS011;65234;50.044;19.258;2022-12-16T05:18:46;34.73;;;32.73;;
76405;SDS011;65234;50.044;19.258;2022-12-16T05:21:12;33.67;;;31.30;;
76405;SDS011;65234;50.044;19.258;2022-12-16T05:23:37;35.37;;;32.83;;
76405;SDS011;65234;50.044;19.258;2022-12-16T05:26:03;39.13;;;36.17;;
76405;SDS011;65234;50.044;19.258;2022-12-16T05:28:29;37.80;;;35.20;;
76405;SDS011;65234;50.044;19.258;2022-12-16T05:30:55;40.50;;;36.87;;
76405;SDS011;65234;50.044;19.258;2022-12-16T05:33:20;38.17;;;34.70;;
76405;SDS011;65234;50.044;19.258;2022-12-16T05:35:48;36.00;;;33.93;;
76405;SDS011;65234;50.044;19.258;2022-12-16T05:38:13;36.73;;;33.67;;
76405;SDS011;65234;50.044;19.258;2022-12-16T05:40:39;37.27;;;34.93;;
76405;SDS011;65234;50.044;19.258;2022-12-16T05:43:05;37.17;;;34.83;;
76405;SDS011;65234;50.044;19.258;2022-12-16T05:45:31;35.90;;;33.53;;
76405;SDS011;65234;50.044;19.258;2022-12-16T05:47:56;36.37;;;33.93;;
76405;SDS011;65234;50.044;19.258;2022-12-16T05:50:22;40.60;;;37.23;;
76405;SDS011;65234;50.044;19.258;2022-12-16T05:52:49;39.17;;;36.57;;
76405;SDS011;65234;50.044;19.258;2022-12-16T05:55:16;37.43;;;34.67;;
76405;SDS011;65234;50.044;19.258;2022-12-16T05:57:41;37.93;;;35.33;;
76405;SDS011;65234;50.044;19.258;2022-12-16T06:00:08;35.83;;;33.57;;
76405;SDS011;65234;50.044;19.258;2022-12-16T06:02:34;39.13;;;36.37;;
76405;SDS011;65234;50.044;19.258;2022-12-16T06:05:00;38.63;;;36.43;;
76405;SDS011;65234;50.044;19.258;2022-12-16T06:07:26;37.30;;;34.77;;
76405;SDS011;65234;50.044;19.258;2022-12-16T06:09:53;40.30;;;37.00;;
76405;SDS011;65234;50.044;19.258;2022-12-16T06:12:18;35.53;;;33.43;;
76405;SDS011;65234;50.044;19.258;2022-12-16T06:14:44;39.83;;;36.47;;
76405;SDS011;65234;50.044;19.258;2022-12-16T06:17:10;38.40;;;35.97;;
76405;SDS011;65234;50.044;19.258;2022-12-16T06:19:36;35.67;;;33.70;;
76405;SDS011;65234;50.044;19.258;2022-12-16T06:22:01;36.03;;;33.83;;
76405;SDS011;65234;50.044;19.258;2022-12-16T06:24:27;36.47;;;33.97;;
76405;SDS011;65234;50.044;19.258;2022-12-16T06:26:54;38.00;;;35.70;;
76405;SDS011;65234;50.044;19.258;2022-12-16T06:29:20;37.47;;;35.20;;
76405;SDS011;65234;50.044;19.258;2022-12-16T06:31:45;40.33;;;36.00;;
76405;SDS011;65234;50.044;19.258;2022-12-16T06:34:11;37.13;;;34.97;;
76405;SDS011;65234;50.044;19.258;2022-12-16T06:36:37;36.57;;;34.07;;
76405;SDS011;65234;50.044;19.258;2022-12-16T06:39:03;36.23;;;34.23;;
76405;SDS011;65234;50.044;19.258;2022-12-16T06:41:28;39.63;;;36.10;;
76405;SDS011;65234;50.044;19.258;2022-12-16T06:43:56;36.17;;;34.17;;
76405;SDS011;65234;50.044;19.258;2022-12-16T06:46:21;37.63;;;34.83;;
76405;SDS011;65234;50.044;19.258;2022-12-16T06:48:47;39.60;;;36.23;;
76405;SDS011;65234;50.044;19.258;2022-12-16T06:51:13;38.87;;;36.37;;
76405;SDS011;65234;50.044;19.258;2022-12-16T06:53:39;35.93;;;33.57;;
76405;SDS011;65234;50.044;19.258;2022-12-16T06:56:05;36.80;;;34.43;;
76405;SDS011;65234;50.044;19.258;2022-12-16T06:58:31;40.17;;;37.03;;
76405;SDS011;65234;50.044;19.258;2022-12-16T07:00:58;36.13;;;33.50;;
76405;SDS011;65234;50.044;19.258;2022-12-16T07:03:24;38.97;;;36.30;;
76405;SDS011;65234;50.044;19.258;2022-12-16T07:05:51;43.83;;;35.53;;
76405;SDS011;65234;50.044;19.258;2022-12-16T07:08:17;37.63;;;35.60;;
76405;SDS011;65234;50.044;19.258;2022-12-16T07:10:42;39.27;;;36.70;;
76405;SDS011;65234;50.044;19.258;2022-12-16T07:13:08;34.23;;;32.50;;
76405;SDS011;65234;50.044;19.258;2022-12-16T07:15:34;35.67;;;33.37;;
76405;SDS011;65234;50.044;19.258;2022-12-16T07:18:01;36.03;;;34.00;;
76405;SDS011;65234;50.044;19.258;2022-12-16T07:20:27;39.40;;;36.60;;
76405;SDS011;65234;50.044;19.258;2022-12-16T07:22:52;34.50;;;32.57;;
76405;SDS011;65234;50.044;19.258;2022-12-16T07:25:18;38.50;;;36.27;;
76405;SDS011;65234;50.044;19.258;2022-12-16T07:27:44;38.23;;;35.57;;
76405;SDS011;65234;50.044;19.258;2022-12-16T07:30:11;36.63;;;34.17;;
76405;SDS011;65234;50.044;19.258;2022-12-16T07:32:37;41.97;;;38.75;;
76405;SDS011;65234;50.044;19.258;2022-12-16T07:35:04;41.90;;;38.90;;
76405;SDS011;65234;50.044;19.258;2022-12-16T07:37:30;37.67;;;35.20;;
76405;SDS011;65234;50.044;19.258;2022-12-16T07:39:56;46.33;;;43.23;;
76405;SDS011;65234;50.044;19.258;2022-12-16T07:42:22;41.27;;;38.53;;
76405;SDS011;65234;50.044;19.258;2022-12-16T07:44:48;38.57;;;36.20;;
76405;SDS011;65234;50.044;19.258;2022-12-16T07:47:13;39.43;;;36.77;;
76405;SDS011;65234;50.044;19.258;2022-12-16T07:49:39;38.57;;;36.57;;
76405;SDS011;65234;50.044;19.258;2022-12-16T07:52:06;37.63;;;35.07;;
76405;SDS011;65234;50.044;19.258;2022-12-16T07:54:32;38.13;;;36.03;;
76405;SDS011;65234;50.044;19.258;2022-12-16T07:56:58;37.10;;;34.63;;
76405;SDS011;65234;50.044;19.258;2022-12-16T07:59:23;41.43;;;38.10;;
76405;SDS011;65234;50.044;19.258;2022-12-16T08:01:49;38.73;;;36.40;;
76405;SDS011;65234;50.044;19.258;2022-12-16T08:04:15;42.20;;;39.17;;
76405;SDS011;65234;50.044;19.258;2022-12-16T08:06:41;39.60;;;37.27;;
76405;SDS011;65234;50.044;19.258;2022-12-16T08:09:08;39.97;;;37.53;;
76405;SDS011;65234;50.044;19.258;2022-12-16T08:11:33;38.80;;;36.43;;
76405;SDS011;65234;50.044;19.258;2022-12-16T08:13:59;37.07;;;34.73;;
76405;SDS011;65234;50.044;19.258;2022-12-16T08:16:25;37.13;;;34.97;;
76405;SDS011;65234;50.044;19.258;2022-12-16T08:18:50;39.47;;;37.42;;
76405;SDS011;65234;50.044;19.258;2022-12-16T08:21:16;38.73;;;36.50;;
76405;SDS011;65234;50.044;19.258;2022-12-16T08:23:42;40.60;;;37.97;;
76405;SDS011;65234;50.044;19.258;2022-12-16T08:26:09;41.47;;;39.07;;
76405;SDS011;65234;50.044;19.258;2022-12-16T08:28:35;42.50;;;39.57;;
76405;SDS011;65234;50.044;19.258;2022-12-16T08:31:01;40.58;;;37.92;;
76405;SDS011;65234;50.044;19.258;2022-12-16T08:33:26;37.65;;;35.65;;
76405;SDS011;65234;50.044;19.258;2022-12-16T08:35:52;41.00;;;38.15;;
76405;SDS011;65234;50.044;19.258;2022-12-16T08:38:17;40.13;;;37.60;;
76405;SDS011;65234;50.044;19.258;2022-12-16T08:40:43;42.63;;;40.00;;
76405;SDS011;65234;50.044;19.258;2022-12-16T08:43:10;42.60;;;39.17;;
76405;SDS011;65234;50.044;19.258;2022-12-16T08:45:36;44.63;;;41.53;;
76405;SDS011;65234;50.044;19.258;2022-12-16T08:48:02;42.72;;;40.53;;
76405;SDS011;65234;50.044;19.258;2022-12-16T08:50:28;41.60;;;39.33;;
76405;SDS011;65234;50.044;19.258;2022-12-16T08:52:54;43.30;;;40.47;;
76405;SDS011;65234;50.044;19.258;2022-12-16T08:55:20;44.33;;;40.80;;
76405;SDS011;65234;50.044;19.258;2022-12-16T08:57:51;43.55;;;40.92;;
76405;SDS011;65234;50.044;19.258;2022-12-16T09:00:19;44.55;;;41.47;;
76405;SDS011;65234;50.044;19.258;2022-12-16T09:02:44;51.33;;;45.95;;
76405;SDS011;65234;50.044;19.258;2022-12-16T09:05:10;48.30;;;44.20;;
76405;SDS011;65234;50.044;19.258;2022-12-16T09:07:36;50.53;;;45.72;;
76405;SDS011;65234;50.044;19.258;2022-12-16T09:10:02;46.35;;;43.58;;
76405;SDS011;65234;50.044;19.258;2022-12-16T09:12:28;47.13;;;43.60;;
76405;SDS011;65234;50.044;19.258;2022-12-16T09:14:54;43.38;;;40.75;;
76405;SDS011;65234;50.044;19.258;2022-12-16T09:17:20;49.45;;;44.88;;
76405;SDS011;65234;50.044;19.258;2022-12-16T09:19:46;46.30;;;42.70;;
76405;SDS011;65234;50.044;19.258;2022-12-16T09:22:12;47.92;;;44.72;;
76405;SDS011;65234;50.044;19.258;2022-12-16T09:24:38;50.90;;;47.13;;
76405;SDS011;65234;50.044;19.258;2022-12-16T09:27:03;47.53;;;44.27;;
76405;SDS011;65234;50.044;19.258;2022-12-16T09:29:29;52.60;;;47.73;;
76405;SDS011;65234;50.044;19.258;2022-12-16T09:31:55;48.42;;;44.90;;
76405;SDS011;65234;50.044;19.258;2022-12-16T09:34:22;52.05;;;48.17;;
76405;SDS011;65234;50.044;19.258;2022-12-16T09:36:47;48.85;;;44.53;;
76405;SDS011;65234;50.044;19.258;2022-12-16T09:39:13;50.60;;;46.05;;
76405;SDS011;65234;50.044;19.258;2022-12-16T09:41:42;51.72;;;47.70;;
76405;SDS011;65234;50.044;19.258;2022-12-16T09:44:10;49.47;;;45.13;;
76405;SDS011;65234;50.044;19.258;2022-12-16T09:46:45;46.92;;;43.40;;
76405;SDS011;65234;50.044;19.258;2022-12-16T09:49:18;43.90;;;41.05;;
76405;SDS011;65234;50.044;19.258;2022-12-16T09:51:51;44.38;;;41.83;;
76405;SDS011;65234;50.044;19.258;2022-12-16T09:54:18;46.65;;;43.33;;
76405;SDS011;65234;50.044;19.258;2022-12-16T09:56:46;47.83;;;44.00;;
76405;SDS011;65234;50.044;19.258;2022-12-16T09:59:14;41.88;;;39.10;;
76405;SDS011;65234;50.044;19.258;2022-12-16T10:01:45;45.15;;;41.25;;
76405;SDS011;65234;50.044;19.258;2022-12-16T10:04:11;44.40;;;41.47;;
76405;SDS011;65234;50.044;19.258;2022-12-16T10:06:40;43.42;;;40.72;;
76405;SDS011;65234;50.044;19.258;2022-12-16T10:09:09;44.33;;;41.20;;
76405;SDS011;65234;50.044;19.258;2022-12-16T10:11:46;42.75;;;39.85;;
76405;SDS011;65234;50.044;19.258;2022-12-16T10:14:20;44.75;;;41.28;;
76405;SDS011;65234;50.044;19.258;2022-12-16T10:16:50;41.58;;;39.17;;
76405;SDS011;65234;50.044;19.258;2022-12-16T10:19:27;44.43;;;41.20;;
76405;SDS011;65234;50.044;19.258;2022-12-16T10:22:04;43.70;;;40.35;;
76405;SDS011;65234;50.044;19.258;2022-12-16T10:24:37;46.13;;;42.72;;
76405;SDS011;65234;50.044;19.258;2022-12-16T10:27:14;46.97;;;43.30;;
76405;SDS011;65234;50.044;19.258;2022-12-16T10:29:43;41.85;;;39.15;;
76405;SDS011;65234;50.044;19.258;2022-12-16T10:32:11;42.73;;;39.33;;
76405;SDS011;65234;50.044;19.258;2022-12-16T10:34:43;46.50;;;41.83;;
76405;SDS011;65234;50.044;19.258;2022-12-16T10:37:10;43.15;;;40.15;;
76405;SDS011;65234;50.044;19.258;2022-12-16T10:39:40;43.00;;;39.95;;
76405;SDS011;65234;50.044;19.258;2022-12-16T10:42:11;47.23;;;43.53;;
76405;SDS011;65234;50.044;19.258;2022-12-16T10:44:46;44.25;;;40.78;;
76405;SDS011;65234;50.044;19.258;2022-12-16T10:47:16;47.10;;;43.88;;
76405;SDS011;65234;50.044;19.258;2022-12-16T10:49:42;45.42;;;42.38;;
76405;SDS011;65234;50.044;19.258;2022-12-16T10:52:08;43.30;;;40.33;;
76405;SDS011;65234;50.044;19.258;2022-12-16T10:54:39;47.45;;;43.40;;
76405;SDS011;65234;50.044;19.258;2022-12-16T10:57:09;49.60;;;44.83;;
76405;SDS011;65234;50.044;19.258;2022-12-16T10:59:39;45.50;;;42.08;;
76405;SDS011;65234;50.044;19.258;2022-12-16T11:02:15;45.00;;;42.13;;
76405;SDS011;65234;50.044;19.258;2022-12-16T11:04:44;45.70;;;42.17;;
76405;SDS011;65234;50.044;19.258;2022-12-16T11:07:22;45.13;;;42.25;;
76405;SDS011;65234;50.044;19.258;2022-12-16T11:09:50;41.40;;;38.55;;
76405;SDS011;65234;50.044;19.258;2022-12-16T11:12:19;44.80;;;41.73;;
76405;SDS011;65234;50.044;19.258;2022-12-16T11:14:50;42.42;;;39.70;;
76405;SDS011;65234;50.044;19.258;2022-12-16T11:17:17;46.13;;;42.45;;
76405;SDS011;65234;50.044;19.258;2022-12-16T11:19:44;47.88;;;44.33;;
76405;SDS011;65234;50.044;19.258;2022-12-16T11:22:12;43.47;;;40.53;;
76405;SDS011;65234;50.044;19.258;2022-12-16T11:24:40;43.53;;;40.55;;
76405;SDS011;65234;50.044;19.258;2022-12-16T11:27:11;44.33;;;41.20;;
76405;SDS011;65234;50.044;19.258;2022-12-16T11:29:52;44.08;;;40.70;;
76405;SDS011;65234;50.044;19.258;2022-12-16T11:32:20;44.35;;;41.30;;
76405;SDS011;65234;50.044;19.258;2022-12-16T11:34:50;42.75;;;40.47;;
76405;SDS011;65234;50.044;19.258;2022-12-16T11:37:18;47.72;;;44.38;;
76405;SDS011;65234;50.044;19.258;2022-12-16T11:39:47;45.67;;;42.17;;
76405;SDS011;65234;50.044;19.258;2022-12-16T11:42:14;43.95;;;41.08;;
76405;SDS011;65234;50.044;19.258;2022-12-16T11:44:45;40.65;;;37.95;;
76405;SDS011;65234;50.044;19.258;2022-12-16T11:47:15;43.65;;;40.50;;
76405;SDS011;65234;50.044;19.258;2022-12-16T11:49:47;48.53;;;44.70;;
76405;SDS011;65234;50.044;19.258;2022-12-16T11:52:14;42.58;;;39.13;;
76405;SDS011;65234;50.044;19.258;2022-12-16T11:54:43;43.70;;;41.20;;
76405;SDS011;65234;50.044;19.258;2022-12-16T11:57:19;42.00;;;39.35;;
76405;SDS011;65234;50.044;19.258;2022-12-16T11:59:49;42.70;;;39.65;;
76405;SDS011;65234;50.044;19.258;2022-12-16T12:02:20;41.20;;;38.50;;
76405;SDS011;65234;50.044;19.258;2022-12-16T12:04:50;44.42;;;41.85;;
76405;SDS011;65234;50.044;19.258;2022-12-16T12:07:24;41.10;;;38.65;;
76405;SDS011;65234;50.044;19.258;2022-12-16T12:09:57;44.97;;;41.70;;
76405;SDS011;65234;50.044;19.258;2022-12-16T12:12:29;44.95;;;41.35;;
76405;SDS011;65234;50.044;19.258;2022-12-16T12:15:02;40.95;;;38.45;;
76405;SDS011;65234;50.044;19.258;2022-12-16T12:17:43;43.42;;;40.47;;
76405;SDS011;65234;50.044;19.258;2022-12-16T12:20:21;44.10;;;41.55;;
76405;SDS011;65234;50.044;19.258;2022-12-16T12:23:00;45.65;;;42.55;;
76405;SDS011;65234;50.044;19.258;2022-12-16T12:25:34;40.60;;;38.10;;
76405;SDS011;65234;50.044;19.258;2022-12-16T12:28:09;41.85;;;39.40;;
76405;SDS011;65234;50.044;19.258;2022-12-16T12:30:48;41.42;;;38.60;;
76405;SDS011;65234;50.044;19.258;2022-12-16T12:33:23;41.85;;;38.17;;
76405;SDS011;65234;50.044;19.258;2022-12-16T12:35:59;45.92;;;42.45;;
76405;SDS011;65234;50.044;19.258;2022-12-16T12:38:29;46.38;;;42.55;;
76405;SDS011;65234;50.044;19.258;2022-12-16T12:41:02;45.97;;;42.50;;
76405;SDS011;65234;50.044;19.258;2022-12-16T12:43:38;42.03;;;39.35;;
76405;SDS011;65234;50.044;19.258;2022-12-16T12:46:13;46.73;;;42.47;;
76405;SDS011;65234;50.044;19.258;2022-12-16T12:48:48;48.95;;;44.55;;
76405;SDS011;65234;50.044;19.258;2022-12-16T12:51:21;47.35;;;43.97;;
76405;SDS011;65234;50.044;19.258;2022-12-16T12:56:25;44.83;;;40.00;;
76405;SDS011;65234;50.044;19.258;2022-12-16T12:58:58;44.30;;;40.67;;
76405;SDS011;65234;50.044;19.258;2022-12-16T13:01:29;52.75;;;45.28;;
76405;SDS011;65234;50.044;19.258;2022-12-16T13:03:59;47.10;;;42.17;;
76405;SDS011;65234;50.044;19.258;2022-12-16T13:06:29;45.85;;;41.97;;
76405;SDS011;65234;50.044;19.258;2022-12-16T13:08:56;45.28;;;41.72;;
76405;SDS011;65234;50.044;19.258;2022-12-16T13:11:25;45.77;;;41.87;;
76405;SDS011;65234;50.044;19.258;2022-12-16T13:13:50;47.05;;;43.30;;
76405;SDS011;65234;50.044;19.258;2022-12-16T13:22:18;43.45;;;40.55;;
76405;SDS011;65234;50.044;19.258;2022-12-16T13:24:51;44.70;;;40.55;;
76405;SDS011;65234;50.044;19.258;2022-12-16T13:27:19;41.40;;;38.47;;
76405;SDS011;65234;50.044;19.258;2022-12-16T13:29:55;43.33;;;39.63;;
76405;SDS011;65234;50.044;19.258;2022-12-16T13:32:26;45.33;;;41.23;;
76405;SDS011;65234;50.044;19.258;2022-12-16T13:34:57;44.43;;;40.40;;
76405;SDS011;65234;50.044;19.258;2022-12-16T13:37:25;43.20;;;40.23;;
76405;SDS011;65234;50.044;19.258;2022-12-16T13:39:57;39.70;;;37.20;;
76405;SDS011;65234;50.044;19.258;2022-12-16T13:42:48;42.83;;;39.00;;
76405;SDS011;65234;50.044;19.258;2022-12-16T13:45:23;38.83;;;36.37;;
76405;SDS011;65234;50.044;19.258;2022-12-16T13:47:57;40.37;;;37.73;;
76405;SDS011;65234;50.044;19.258;2022-12-16T13:50:34;37.87;;;35.30;;
76405;SDS011;65234;50.044;19.258;2022-12-16T13:53:01;46.07;;;42.43;;
76405;SDS011;65234;50.044;19.258;2022-12-16T13:55:29;39.43;;;36.03;;
76405;SDS011;65234;50.044;19.258;2022-12-16T13:58:00;44.00;;;39.57;;
76405;SDS011;65234;50.044;19.258;2022-12-16T14:00:29;38.77;;;35.43;;
76405;SDS011;65234;50.044;19.258;2022-12-16T14:03:01;41.37;;;38.67;;
76405;SDS011;65234;50.044;19.258;2022-12-16T14:05:35;42.00;;;38.97;;
76405;SDS011;65234;50.044;19.258;2022-12-16T14:08:03;41.00;;;38.00;;
76405;SDS011;65234;50.044;19.258;2022-12-16T14:10:31;34.37;;;32.43;;
76405;SDS011;65234;50.044;19.258;2022-12-16T14:13:02;41.30;;;37.93;;
76405;SDS011;65234;50.044;19.258;2022-12-16T14:15:33;39.93;;;36.87;;
76405;SDS011;65234;50.044;19.258;2022-12-16T14:18:11;39.80;;;36.47;;
76405;SDS011;65234;50.044;19.258;2022-12-16T14:20:48;40.57;;;38.03;;
76405;SDS011;65234;50.044;19.258;2022-12-16T14:23:23;40.87;;;37.90;;
76405;SDS011;65234;50.044;19.258;2022-12-16T14:25:57;39.23;;;36.53;;
76405;SDS011;65234;50.044;19.258;2022-12-16T14:28:26;43.50;;;40.33;;
76405;SDS011;65234;50.044;19.258;2022-12-16T14:31:01;41.63;;;37.50;;